Terminal Aerodrome Forecast
Issued by NWS Wichita, KS

Home | Current Version | Previous Version | Graphics & Text | Print | Product List | Glossary On
Versions: 1 2 3 4 5 6 7 8 9 10 11 12 13 14 15 16 17 18 19 20 21 22 23 24
000
FTUS43 KICT 151854 AAA
TAFICT
TAF AMD
KICT 151854Z 1519/1618 31022G32KT P6SM OVC025
     FM152100 31022G30KT P6SM BKN030
     FM152300 33017G23KT P6SM BKN030
     FM160400 34015G20KT P6SM BKN025
     FM161500 35012KT P6SM SCT020 BKN035=

USA.gov is the U.S. government's official web portal to all federal, state and local government web resources and services.